sensor_id;sensor_type;location;lat;lon;timestamp;P1;durP1;ratioP1;P2;durP2;ratioP2
51332;SDS011;37417;48.118;11.734;2024-02-26T00:00:07;4.68;;;3.03;;
51332;SDS011;37417;48.118;11.734;2024-02-26T00:02:54;3.28;;;2.47;;
51332;SDS011;37417;48.118;11.734;2024-02-26T00:05:40;1.67;;;1.52;;
51332;SDS011;37417;48.118;11.734;2024-02-26T00:08:25;4.65;;;2.90;;
51332;SDS011;37417;48.118;11.734;2024-02-26T00:11:11;4.47;;;2.75;;
51332;SDS011;37417;48.118;11.734;2024-02-26T00:13:57;3.80;;;2.33;;
51332;SDS011;37417;48.118;11.734;2024-02-26T00:16:43;6.03;;;2.42;;
51332;SDS011;37417;48.118;11.734;2024-02-26T00:19:30;4.60;;;2.83;;
51332;SDS011;37417;48.118;11.734;2024-02-26T00:22:16;4.40;;;1.90;;
51332;SDS011;37417;48.118;11.734;2024-02-26T00:25:01;2.50;;;2.03;;
51332;SDS011;37417;48.118;11.734;2024-02-26T00:27:47;5.38;;;2.08;;
51332;SDS011;37417;48.118;11.734;2024-02-26T00:30:32;7.65;;;2.83;;
51332;SDS011;37417;48.118;11.734;2024-02-26T00:33:18;5.18;;;2.35;;
51332;SDS011;37417;48.118;11.734;2024-02-26T00:36:03;4.70;;;2.40;;
51332;SDS011;37417;48.118;11.734;2024-02-26T00:38:49;3.70;;;2.67;;
51332;SDS011;37417;48.118;11.734;2024-02-26T00:41:38;6.05;;;3.17;;
51332;SDS011;37417;48.118;11.734;2024-02-26T00:44:23;3.75;;;2.58;;
51332;SDS011;37417;48.118;11.734;2024-02-26T00:47:09;5.43;;;3.63;;
51332;SDS011;37417;48.118;11.734;2024-02-26T00:49:54;4.85;;;2.85;;
51332;SDS011;37417;48.118;11.734;2024-02-26T00:52:40;4.88;;;2.53;;
51332;SDS011;37417;48.118;11.734;2024-02-26T00:55:25;6.35;;;2.80;;
51332;SDS011;37417;48.118;11.734;2024-02-26T00:58:11;3.90;;;2.22;;
51332;SDS011;37417;48.118;11.734;2024-02-26T01:00:57;4.22;;;2.78;;
51332;SDS011;37417;48.118;11.734;2024-02-26T01:03:42;4.85;;;2.35;;
51332;SDS011;37417;48.118;11.734;2024-02-26T01:06:28;3.88;;;3.03;;
51332;SDS011;37417;48.118;11.734;2024-02-26T01:09:13;5.22;;;2.88;;
51332;SDS011;37417;48.118;11.734;2024-02-26T01:11:59;4.93;;;3.03;;
51332;SDS011;37417;48.118;11.734;2024-02-26T01:14:44;3.38;;;2.50;;
51332;SDS011;37417;48.118;11.734;2024-02-26T01:17:30;4.15;;;2.50;;
51332;SDS011;37417;48.118;11.734;2024-02-26T01:20:15;4.47;;;2.95;;
51332;SDS011;37417;48.118;11.734;2024-02-26T01:23:01;2.38;;;2.13;;
51332;SDS011;37417;48.118;11.734;2024-02-26T01:25:46;10.57;;;3.05;;
51332;SDS011;37417;48.118;11.734;2024-02-26T01:28:32;2.85;;;2.17;;
51332;SDS011;37417;48.118;11.734;2024-02-26T01:31:17;5.72;;;3.00;;
51332;SDS011;37417;48.118;11.734;2024-02-26T01:34:03;3.78;;;2.72;;
51332;SDS011;37417;48.118;11.734;2024-02-26T01:36:48;4.22;;;3.00;;
51332;SDS011;37417;48.118;11.734;2024-02-26T01:39:34;5.28;;;3.40;;
51332;SDS011;37417;48.118;11.734;2024-02-26T01:42:20;5.43;;;2.38;;
51332;SDS011;37417;48.118;11.734;2024-02-26T01:45:05;2.80;;;2.50;;
51332;SDS011;37417;48.118;11.734;2024-02-26T01:47:52;2.63;;;2.33;;
51332;SDS011;37417;48.118;11.734;2024-02-26T01:50:38;2.33;;;1.92;;
51332;SDS011;37417;48.118;11.734;2024-02-26T01:53:24;4.35;;;2.35;;
51332;SDS011;37417;48.118;11.734;2024-02-26T01:56:10;1.55;;;1.45;;
51332;SDS011;37417;48.118;11.734;2024-02-26T01:58:57;4.85;;;2.22;;
51332;SDS011;37417;48.118;11.734;2024-02-26T02:01:44;0.70;;;0.70;;
51332;SDS011;37417;48.118;11.734;2024-02-26T02:04:30;1.42;;;1.23;;
51332;SDS011;37417;48.118;11.734;2024-02-26T02:07:16;4.28;;;2.10;;
51332;SDS011;37417;48.118;11.734;2024-02-26T02:10:02;4.95;;;2.60;;
51332;SDS011;37417;48.118;11.734;2024-02-26T02:12:48;4.68;;;2.17;;
51332;SDS011;37417;48.118;11.734;2024-02-26T02:15:34;1.80;;;1.63;;
51332;SDS011;37417;48.118;11.734;2024-02-26T02:18:19;2.03;;;1.80;;
51332;SDS011;37417;48.118;11.734;2024-02-26T02:21:05;3.33;;;2.45;;
51332;SDS011;37417;48.118;11.734;2024-02-26T02:23:50;4.53;;;2.50;;
51332;SDS011;37417;48.118;11.734;2024-02-26T02:26:36;1.95;;;1.15;;
51332;SDS011;37417;48.118;11.734;2024-02-26T02:29:22;1.00;;;0.90;;
51332;SDS011;37417;48.118;11.734;2024-02-26T02:32:07;4.40;;;1.65;;
51332;SDS011;37417;48.118;11.734;2024-02-26T02:34:53;1.15;;;0.52;;
51332;SDS011;37417;48.118;11.734;2024-02-26T02:37:39;0.98;;;0.68;;
51332;SDS011;37417;48.118;11.734;2024-02-26T02:40:24;2.20;;;1.60;;
51332;SDS011;37417;48.118;11.734;2024-02-26T02:43:10;3.03;;;1.23;;
51332;SDS011;37417;48.118;11.734;2024-02-26T02:45:55;2.47;;;1.95;;
51332;SDS011;37417;48.118;11.734;2024-02-26T02:48:41;3.53;;;1.50;;
51332;SDS011;37417;48.118;11.734;2024-02-26T02:51:27;2.90;;;1.50;;
51332;SDS011;37417;48.118;11.734;2024-02-26T02:54:12;3.22;;;1.30;;
51332;SDS011;37417;48.118;11.734;2024-02-26T02:56:58;2.85;;;1.45;;
51332;SDS011;37417;48.118;11.734;2024-02-26T02:59:44;4.28;;;1.13;;
51332;SDS011;37417;48.118;11.734;2024-02-26T03:02:29;3.78;;;1.50;;
51332;SDS011;37417;48.118;11.734;2024-02-26T03:05:15;1.27;;;1.17;;
51332;SDS011;37417;48.118;11.734;2024-02-26T03:08:00;1.52;;;1.08;;
51332;SDS011;37417;48.118;11.734;2024-02-26T03:10:46;2.47;;;1.65;;
51332;SDS011;37417;48.118;11.734;2024-02-26T03:13:31;3.05;;;1.55;;
51332;SDS011;37417;48.118;11.734;2024-02-26T03:16:17;2.45;;;1.20;;
51332;SDS011;37417;48.118;11.734;2024-02-26T03:19:03;2.33;;;1.58;;
51332;SDS011;37417;48.118;11.734;2024-02-26T03:21:48;2.60;;;1.33;;
51332;SDS011;37417;48.118;11.734;2024-02-26T03:24:34;1.75;;;1.30;;
51332;SDS011;37417;48.118;11.734;2024-02-26T03:27:19;2.03;;;1.58;;
51332;SDS011;37417;48.118;11.734;2024-02-26T03:30:05;1.38;;;1.10;;
51332;SDS011;37417;48.118;11.734;2024-02-26T03:32:50;1.88;;;1.23;;
51332;SDS011;37417;48.118;11.734;2024-02-26T03:35:36;4.45;;;2.55;;
51332;SDS011;37417;48.118;11.734;2024-02-26T03:38:22;1.95;;;1.40;;
51332;SDS011;37417;48.118;11.734;2024-02-26T03:41:07;2.03;;;0.90;;
51332;SDS011;37417;48.118;11.734;2024-02-26T03:43:54;1.25;;;1.10;;
51332;SDS011;37417;48.118;11.734;2024-02-26T03:46:39;2.55;;;1.67;;
51332;SDS011;37417;48.118;11.734;2024-02-26T03:49:25;1.75;;;1.35;;
51332;SDS011;37417;48.118;11.734;2024-02-26T03:52:10;1.33;;;1.23;;
51332;SDS011;37417;48.118;11.734;2024-02-26T03:54:56;1.48;;;1.20;;
51332;SDS011;37417;48.118;11.734;2024-02-26T03:57:41;3.08;;;1.20;;
51332;SDS011;37417;48.118;11.734;2024-02-26T04:00:27;2.40;;;1.52;;
51332;SDS011;37417;48.118;11.734;2024-02-26T04:03:14;1.15;;;0.95;;
51332;SDS011;37417;48.118;11.734;2024-02-26T04:05:59;2.92;;;1.42;;
51332;SDS011;37417;48.118;11.734;2024-02-26T04:08:45;1.70;;;1.40;;
51332;SDS011;37417;48.118;11.734;2024-02-26T04:11:31;1.65;;;1.20;;
51332;SDS011;37417;48.118;11.734;2024-02-26T04:14:16;1.10;;;1.00;;
51332;SDS011;37417;48.118;11.734;2024-02-26T04:17:02;2.00;;;1.48;;
51332;SDS011;37417;48.118;11.734;2024-02-26T04:19:48;1.67;;;1.42;;
51332;SDS011;37417;48.118;11.734;2024-02-26T04:22:33;1.63;;;1.00;;
51332;SDS011;37417;48.118;11.734;2024-02-26T04:25:19;1.88;;;1.27;;
51332;SDS011;37417;48.118;11.734;2024-02-26T04:28:04;1.38;;;1.10;;
51332;SDS011;37417;48.118;11.734;2024-02-26T04:30:50;2.28;;;1.27;;
51332;SDS011;37417;48.118;11.734;2024-02-26T04:33:35;2.42;;;1.08;;
51332;SDS011;37417;48.118;11.734;2024-02-26T04:36:21;1.88;;;1.38;;
51332;SDS011;37417;48.118;11.734;2024-02-26T04:39:07;1.88;;;1.30;;
51332;SDS011;37417;48.118;11.734;2024-02-26T04:41:52;1.48;;;1.15;;
51332;SDS011;37417;48.118;11.734;2024-02-26T04:44:38;1.75;;;1.27;;
51332;SDS011;37417;48.118;11.734;2024-02-26T04:47:23;3.55;;;1.70;;
51332;SDS011;37417;48.118;11.734;2024-02-26T04:50:09;1.90;;;1.10;;
51332;SDS011;37417;48.118;11.734;2024-02-26T04:52:55;2.17;;;1.58;;
51332;SDS011;37417;48.118;11.734;2024-02-26T04:55:40;3.97;;;1.95;;
51332;SDS011;37417;48.118;11.734;2024-02-26T04:58:26;1.45;;;1.25;;
51332;SDS011;37417;48.118;11.734;2024-02-26T05:01:11;2.55;;;1.85;;
51332;SDS011;37417;48.118;11.734;2024-02-26T05:03:57;2.45;;;1.63;;
51332;SDS011;37417;48.118;11.734;2024-02-26T05:06:42;1.80;;;1.65;;
51332;SDS011;37417;48.118;11.734;2024-02-26T05:09:28;1.60;;;1.33;;
51332;SDS011;37417;48.118;11.734;2024-02-26T05:12:13;2.53;;;1.77;;
51332;SDS011;37417;48.118;11.734;2024-02-26T05:14:59;4.72;;;1.75;;
51332;SDS011;37417;48.118;11.734;2024-02-26T05:17:44;1.75;;;1.13;;
51332;SDS011;37417;48.118;11.734;2024-02-26T05:20:30;2.90;;;1.52;;
51332;SDS011;37417;48.118;11.734;2024-02-26T05:23:17;1.98;;;1.50;;
51332;SDS011;37417;48.118;11.734;2024-02-26T05:26:03;2.92;;;1.77;;
51332;SDS011;37417;48.118;11.734;2024-02-26T05:28:48;1.63;;;1.50;;
51332;SDS011;37417;48.118;11.734;2024-02-26T05:31:34;2.28;;;1.55;;
51332;SDS011;37417;48.118;11.734;2024-02-26T05:34:20;2.35;;;1.30;;
51332;SDS011;37417;48.118;11.734;2024-02-26T05:37:05;7.90;;;1.70;;
51332;SDS011;37417;48.118;11.734;2024-02-26T05:39:52;2.15;;;1.48;;
51332;SDS011;37417;48.118;11.734;2024-02-26T05:42:38;4.75;;;1.60;;
51332;SDS011;37417;48.118;11.734;2024-02-26T05:45:24;3.67;;;1.40;;
51332;SDS011;37417;48.118;11.734;2024-02-26T05:48:09;3.75;;;2.10;;
51332;SDS011;37417;48.118;11.734;2024-02-26T05:54:18;1.58;;;1.38;;
51332;SDS011;37417;48.118;11.734;2024-02-26T05:57:04;5.45;;;1.85;;
51332;SDS011;37417;48.118;11.734;2024-02-26T05:59:49;2.58;;;1.48;;
51332;SDS011;37417;48.118;11.734;2024-02-26T06:02:35;2.60;;;1.80;;
51332;SDS011;37417;48.118;11.734;2024-02-26T06:05:20;2.95;;;1.55;;
51332;SDS011;37417;48.118;11.734;2024-02-26T06:08:06;4.57;;;1.60;;
51332;SDS011;37417;48.118;11.734;2024-02-26T06:10:52;3.00;;;1.63;;
51332;SDS011;37417;48.118;11.734;2024-02-26T06:13:37;2.50;;;2.03;;
51332;SDS011;37417;48.118;11.734;2024-02-26T06:16:23;3.90;;;2.00;;
51332;SDS011;37417;48.118;11.734;2024-02-26T06:19:08;1.80;;;1.63;;
51332;SDS011;37417;48.118;11.734;2024-02-26T06:21:54;2.95;;;1.80;;
51332;SDS011;37417;48.118;11.734;2024-02-26T06:24:40;3.65;;;2.05;;
51332;SDS011;37417;48.118;11.734;2024-02-26T06:27:25;2.72;;;1.77;;
51332;SDS011;37417;48.118;11.734;2024-02-26T06:30:11;3.70;;;1.67;;
51332;SDS011;37417;48.118;11.734;2024-02-26T06:32:56;2.50;;;1.30;;
51332;SDS011;37417;48.118;11.734;2024-02-26T06:35:42;2.15;;;1.55;;
51332;SDS011;37417;48.118;11.734;2024-02-26T06:38:28;2.58;;;1.27;;
51332;SDS011;37417;48.118;11.734;2024-02-26T06:41:13;2.22;;;1.35;;
51332;SDS011;37417;48.118;11.734;2024-02-26T06:43:59;2.72;;;1.73;;
51332;SDS011;37417;48.118;11.734;2024-02-26T06:46:44;6.45;;;1.80;;
51332;SDS011;37417;48.118;11.734;2024-02-26T06:49:30;1.73;;;1.35;;
51332;SDS011;37417;48.118;11.734;2024-02-26T06:52:15;7.18;;;1.40;;
51332;SDS011;37417;48.118;11.734;2024-02-26T06:55:01;2.08;;;1.60;;
51332;SDS011;37417;48.118;11.734;2024-02-26T06:57:46;5.53;;;1.80;;
51332;SDS011;37417;48.118;11.734;2024-02-26T07:00:32;2.40;;;1.33;;
51332;SDS011;37417;48.118;11.734;2024-02-26T07:03:17;4.57;;;1.40;;
51332;SDS011;37417;48.118;11.734;2024-02-26T07:06:03;2.42;;;1.63;;
51332;SDS011;37417;48.118;11.734;2024-02-26T07:08:49;5.07;;;1.63;;
51332;SDS011;37417;48.118;11.734;2024-02-26T07:11:35;1.40;;;1.13;;
51332;SDS011;37417;48.118;11.734;2024-02-26T07:14:20;3.63;;;1.70;;
51332;SDS011;37417;48.118;11.734;2024-02-26T07:17:06;1.83;;;1.20;;
51332;SDS011;37417;48.118;11.734;2024-02-26T07:19:51;5.45;;;1.58;;
51332;SDS011;37417;48.118;11.734;2024-02-26T07:22:37;5.18;;;1.58;;
51332;SDS011;37417;48.118;11.734;2024-02-26T07:25:23;2.08;;;1.40;;
51332;SDS011;37417;48.118;11.734;2024-02-26T07:28:09;2.08;;;1.50;;
51332;SDS011;37417;48.118;11.734;2024-02-26T07:30:55;6.10;;;1.63;;
51332;SDS011;37417;48.118;11.734;2024-02-26T07:33:40;2.00;;;1.42;;
51332;SDS011;37417;48.118;11.734;2024-02-26T07:36:26;3.05;;;1.50;;
51332;SDS011;37417;48.118;11.734;2024-02-26T07:39:11;2.55;;;1.75;;
51332;SDS011;37417;48.118;11.734;2024-02-26T07:41:57;3.38;;;1.80;;
51332;SDS011;37417;48.118;11.734;2024-02-26T07:44:43;3.45;;;1.63;;
51332;SDS011;37417;48.118;11.734;2024-02-26T07:47:28;2.38;;;1.30;;
51332;SDS011;37417;48.118;11.734;2024-02-26T07:50:15;4.10;;;1.40;;
51332;SDS011;37417;48.118;11.734;2024-02-26T07:53:00;1.55;;;1.33;;
51332;SDS011;37417;48.118;11.734;2024-02-26T07:55:46;3.22;;;1.48;;
51332;SDS011;37417;48.118;11.734;2024-02-26T07:58:32;1.85;;;1.20;;
51332;SDS011;37417;48.118;11.734;2024-02-26T08:01:17;1.38;;;1.25;;
51332;SDS011;37417;48.118;11.734;2024-02-26T08:04:03;2.25;;;1.02;;
51332;SDS011;37417;48.118;11.734;2024-02-26T08:06:48;1.83;;;1.30;;
51332;SDS011;37417;48.118;11.734;2024-02-26T08:09:34;3.92;;;1.80;;
51332;SDS011;37417;48.118;11.734;2024-02-26T08:12:20;1.35;;;1.10;;
51332;SDS011;37417;48.118;11.734;2024-02-26T08:15:05;1.92;;;1.52;;
51332;SDS011;37417;48.118;11.734;2024-02-26T08:17:51;1.88;;;1.00;;
51332;SDS011;37417;48.118;11.734;2024-02-26T08:20:37;3.63;;;1.63;;
51332;SDS011;37417;48.118;11.734;2024-02-26T08:23:22;7.40;;;1.65;;
51332;SDS011;37417;48.118;11.734;2024-02-26T08:26:08;6.78;;;1.92;;
51332;SDS011;37417;48.118;11.734;2024-02-26T08:28:55;5.35;;;1.50;;
51332;SDS011;37417;48.118;11.734;2024-02-26T08:31:41;4.50;;;1.60;;
51332;SDS011;37417;48.118;11.734;2024-02-26T08:34:27;4.80;;;2.25;;
51332;SDS011;37417;48.118;11.734;2024-02-26T08:37:12;2.30;;;1.70;;
51332;SDS011;37417;48.118;11.734;2024-02-26T08:39:58;6.72;;;2.13;;
51332;SDS011;37417;48.118;11.734;2024-02-26T08:42:43;5.53;;;1.90;;
51332;SDS011;37417;48.118;11.734;2024-02-26T08:45:29;7.18;;;1.60;;
51332;SDS011;37417;48.118;11.734;2024-02-26T08:48:14;6.10;;;1.63;;
51332;SDS011;37417;48.118;11.734;2024-02-26T08:51:04;3.22;;;1.83;;
51332;SDS011;37417;48.118;11.734;2024-02-26T08:53:49;4.05;;;1.50;;
51332;SDS011;37417;48.118;11.734;2024-02-26T08:56:36;6.80;;;1.27;;
51332;SDS011;37417;48.118;11.734;2024-02-26T08:59:22;5.22;;;1.50;;
51332;SDS011;37417;48.118;11.734;2024-02-26T09:02:08;4.20;;;1.48;;
51332;SDS011;37417;48.118;11.734;2024-02-26T09:04:54;2.00;;;1.33;;
51332;SDS011;37417;48.118;11.734;2024-02-26T09:07:40;1.58;;;1.10;;
51332;SDS011;37417;48.118;11.734;2024-02-26T09:10:26;1.58;;;1.20;;
51332;SDS011;37417;48.118;11.734;2024-02-26T09:13:11;3.00;;;0.85;;
51332;SDS011;37417;48.118;11.734;2024-02-26T09:15:57;3.03;;;1.27;;
51332;SDS011;37417;48.118;11.734;2024-02-26T09:18:42;2.05;;;0.85;;
51332;SDS011;37417;48.118;11.734;2024-02-26T09:21:28;3.17;;;1.00;;
51332;SDS011;37417;48.118;11.734;2024-02-26T09:24:14;1.42;;;0.90;;
51332;SDS011;37417;48.118;11.734;2024-02-26T09:27:00;3.60;;;1.45;;
51332;SDS011;37417;48.118;11.734;2024-02-26T09:29:45;4.45;;;1.67;;
51332;SDS011;37417;48.118;11.734;2024-02-26T09:32:31;1.80;;;1.35;;
51332;SDS011;37417;48.118;11.734;2024-02-26T09:35:17;3.78;;;1.10;;
51332;SDS011;37417;48.118;11.734;2024-02-26T09:38:02;1.35;;;1.15;;
51332;SDS011;37417;48.118;11.734;2024-02-26T09:40:48;1.52;;;0.85;;
51332;SDS011;37417;48.118;11.734;2024-02-26T09:43:34;2.72;;;0.98;;
51332;SDS011;37417;48.118;11.734;2024-02-26T09:46:20;3.47;;;1.10;;
51332;SDS011;37417;48.118;11.734;2024-02-26T09:49:06;1.88;;;0.82;;
51332;SDS011;37417;48.118;11.734;2024-02-26T09:51:53;2.78;;;0.73;;
51332;SDS011;37417;48.118;11.734;2024-02-26T09:54:39;0.95;;;0.73;;
51332;SDS011;37417;48.118;11.734;2024-02-26T09:57:25;1.27;;;0.55;;
51332;SDS011;37417;48.118;11.734;2024-02-26T10:00:14;0.73;;;0.68;;
51332;SDS011;37417;48.118;11.734;2024-02-26T10:03:04;1.50;;;0.80;;
51332;SDS011;37417;48.118;11.734;2024-02-26T10:05:50;0.95;;;0.70;;
51332;SDS011;37417;48.118;11.734;2024-02-26T10:08:36;1.52;;;0.73;;
51332;SDS011;37417;48.118;11.734;2024-02-26T10:11:25;2.90;;;1.05;;
51332;SDS011;37417;48.118;11.734;2024-02-26T10:14:10;1.38;;;1.02;;
51332;SDS011;37417;48.118;11.734;2024-02-26T10:16:57;6.32;;;1.10;;
51332;SDS011;37417;48.118;11.734;2024-02-26T10:19:42;1.08;;;0.75;;
51332;SDS011;37417;48.118;11.734;2024-02-26T10:22:29;2.20;;;1.15;;
51332;SDS011;37417;48.118;11.734;2024-02-26T10:25:15;0.60;;;0.60;;
51332;SDS011;37417;48.118;11.734;2024-02-26T10:28:00;1.77;;;0.95;;
51332;SDS011;37417;48.118;11.734;2024-02-26T10:30:50;2.92;;;1.15;;
51332;SDS011;37417;48.118;11.734;2024-02-26T10:33:36;2.13;;;0.90;;
51332;SDS011;37417;48.118;11.734;2024-02-26T10:36:22;4.18;;;0.90;;
51332;SDS011;37417;48.118;11.734;2024-02-26T10:39:08;0.82;;;0.70;;
51332;SDS011;37417;48.118;11.734;2024-02-26T10:41:53;0.95;;;0.88;;
51332;SDS011;37417;48.118;11.734;2024-02-26T10:44:40;1.27;;;1.02;;
51332;SDS011;37417;48.118;11.734;2024-02-26T10:47:25;1.13;;;0.93;;
51332;SDS011;37417;48.118;11.734;2024-02-26T10:50:12;2.38;;;1.27;;
51332;SDS011;37417;48.118;11.734;2024-02-26T10:52:58;1.67;;;0.90;;
51332;SDS011;37417;48.118;11.734;2024-02-26T10:55:48;1.45;;;1.00;;
51332;SDS011;37417;48.118;11.734;2024-02-26T10:58:33;1.60;;;0.90;;
51332;SDS011;37417;48.118;11.734;2024-02-26T11:01:20;1.40;;;0.60;;
51332;SDS011;37417;48.118;11.734;2024-02-26T11:04:06;0.88;;;0.80;;
51332;SDS011;37417;48.118;11.734;2024-02-26T11:06:52;1.25;;;1.08;;
51332;SDS011;37417;48.118;11.734;2024-02-26T11:09:39;1.13;;;0.93;;
51332;SDS011;37417;48.118;11.734;2024-02-26T11:12:30;1.55;;;0.82;;
51332;SDS011;37417;48.118;11.734;2024-02-26T11:15:16;0.90;;;0.70;;
51332;SDS011;37417;48.118;11.734;2024-02-26T11:18:02;1.80;;;1.08;;
51332;SDS011;37417;48.118;11.734;2024-02-26T11:20:48;2.55;;;0.80;;
51332;SDS011;37417;48.118;11.734;2024-02-26T11:23:34;0.82;;;0.70;;
51332;SDS011;37417;48.118;11.734;2024-02-26T11:26:26;1.13;;;0.70;;
51332;SDS011;37417;48.118;11.734;2024-02-26T11:29:12;0.98;;;0.70;;
51332;SDS011;37417;48.118;11.734;2024-02-26T11:31:59;1.77;;;0.75;;
51332;SDS011;37417;48.118;11.734;2024-02-26T11:34:45;0.85;;;0.60;;
51332;SDS011;37417;48.118;11.734;2024-02-26T11:37:31;0.50;;;0.43;;
51332;SDS011;37417;48.118;11.734;2024-02-26T11:40:17;0.52;;;0.30;;
51332;SDS011;37417;48.118;11.734;2024-02-26T11:43:03;1.00;;;0.50;;
51332;SDS011;37417;48.118;11.734;2024-02-26T11:45:49;0.80;;;0.60;;
51332;SDS011;37417;48.118;11.734;2024-02-26T11:48:35;0.88;;;0.68;;
51332;SDS011;37417;48.118;11.734;2024-02-26T11:51:24;1.20;;;0.60;;
51332;SDS011;37417;48.118;11.734;2024-02-26T11:54:10;0.95;;;0.60;;
51332;SDS011;37417;48.118;11.734;2024-02-26T11:56:57;0.82;;;0.57;;
51332;SDS011;37417;48.118;11.734;2024-02-26T11:59:44;0.47;;;0.40;;
51332;SDS011;37417;48.118;11.734;2024-02-26T12:05:33;1.17;;;0.45;;
51332;SDS011;37417;48.118;11.734;2024-02-26T12:08:19;0.60;;;0.40;;
51332;SDS011;37417;48.118;11.734;2024-02-26T12:11:14;2.35;;;1.48;;
51332;SDS011;37417;48.118;11.734;2024-02-26T12:13:59;0.90;;;0.60;;
51332;SDS011;37417;48.118;11.734;2024-02-26T12:16:45;1.95;;;0.60;;
51332;SDS011;37417;48.118;11.734;2024-02-26T12:19:30;0.45;;;0.38;;
51332;SDS011;37417;48.118;11.734;2024-02-26T12:22:16;0.13;;;0.13;;
51332;SDS011;37417;48.118;11.734;2024-02-26T12:25:02;3.08;;;0.38;;
51332;SDS011;37417;48.118;11.734;2024-02-26T12:27:48;0.60;;;0.30;;
51332;SDS011;37417;48.118;11.734;2024-02-26T12:30:34;0.40;;;0.32;;
51332;SDS011;37417;48.118;11.734;2024-02-26T12:33:20;0.60;;;0.38;;
51332;SDS011;37417;48.118;11.734;2024-02-26T12:36:05;0.57;;;0.38;;
51332;SDS011;37417;48.118;11.734;2024-02-26T12:38:51;1.02;;;0.63;;
51332;SDS011;37417;48.118;11.734;2024-02-26T12:41:37;0.75;;;0.40;;
51332;SDS011;37417;48.118;11.734;2024-02-26T12:44:26;0.40;;;0.30;;
51332;SDS011;37417;48.118;11.734;2024-02-26T12:47:11;2.15;;;0.40;;
51332;SDS011;37417;48.118;11.734;2024-02-26T12:50:02;2.10;;;0.57;;
51332;SDS011;37417;48.118;11.734;2024-02-26T12:52:49;0.30;;;0.30;;
51332;SDS011;37417;48.118;11.734;2024-02-26T12:55:36;1.48;;;0.63;;
51332;SDS011;37417;48.118;11.734;2024-02-26T12:58:24;0.93;;;0.50;;
51332;SDS011;37417;48.118;11.734;2024-02-26T13:01:14;4.55;;;0.50;;
51332;SDS011;37417;48.118;11.734;2024-02-26T13:04:00;1.02;;;0.60;;
51332;SDS011;37417;48.118;11.734;2024-02-26T13:06:51;1.90;;;1.40;;
51332;SDS011;37417;48.118;11.734;2024-02-26T13:09:37;2.47;;;1.50;;
51332;SDS011;37417;48.118;11.734;2024-02-26T13:12:22;1.80;;;1.60;;
51332;SDS011;37417;48.118;11.734;2024-02-26T13:15:09;3.30;;;2.03;;
51332;SDS011;37417;48.118;11.734;2024-02-26T13:17:59;2.05;;;1.85;;
51332;SDS011;37417;48.118;11.734;2024-02-26T13:20:54;3.08;;;1.90;;
51332;SDS011;37417;48.118;11.734;2024-02-26T13:23:39;3.08;;;1.80;;
51332;SDS011;37417;48.118;11.734;2024-02-26T13:26:25;2.30;;;1.80;;
51332;SDS011;37417;48.118;11.734;2024-02-26T13:29:20;6.63;;;2.13;;
51332;SDS011;37417;48.118;11.734;2024-02-26T13:32:06;4.20;;;2.10;;
51332;SDS011;37417;48.118;11.734;2024-02-26T13:34:52;2.33;;;2.00;;
51332;SDS011;37417;48.118;11.734;2024-02-26T13:37:49;2.75;;;1.95;;
51332;SDS011;37417;48.118;11.734;2024-02-26T13:40:34;3.45;;;1.50;;
51332;SDS011;37417;48.118;11.734;2024-02-26T13:43:20;2.53;;;1.67;;
51332;SDS011;37417;48.118;11.734;2024-02-26T13:46:06;2.42;;;1.63;;
51332;SDS011;37417;48.118;11.734;2024-02-26T13:48:52;3.58;;;1.65;;
51332;SDS011;37417;48.118;11.734;2024-02-26T13:51:40;3.60;;;1.88;;
51332;SDS011;37417;48.118;11.734;2024-02-26T13:54:25;3.55;;;1.48;;
51332;SDS011;37417;48.118;11.734;2024-02-26T13:57:11;3.13;;;1.42;;
51332;SDS011;37417;48.118;11.734;2024-02-26T13:59:56;2.08;;;1.70;;
51332;SDS011;37417;48.118;11.734;2024-02-26T14:02:42;3.55;;;1.83;;
51332;SDS011;37417;48.118;11.734;2024-02-26T14:05:27;3.30;;;1.90;;
51332;SDS011;37417;48.118;11.734;2024-02-26T14:08:13;3.85;;;1.50;;
51332;SDS011;37417;48.118;11.734;2024-02-26T14:10:58;2.40;;;2.03;;
51332;SDS011;37417;48.118;11.734;2024-02-26T14:13:45;3.08;;;1.67;;
51332;SDS011;37417;48.118;11.734;2024-02-26T14:16:33;4.53;;;1.50;;
51332;SDS011;37417;48.118;11.734;2024-02-26T14:19:18;3.30;;;1.63;;
51332;SDS011;37417;48.118;11.734;2024-02-26T14:22:04;2.05;;;1.60;;
51332;SDS011;37417;48.118;11.734;2024-02-26T14:24:49;2.55;;;1.80;;
51332;SDS011;37417;48.118;11.734;2024-02-26T14:27:35;1.92;;;1.27;;
51332;SDS011;37417;48.118;11.734;2024-02-26T14:30:21;2.15;;;1.55;;
51332;SDS011;37417;48.118;11.734;2024-02-26T14:33:07;4.55;;;1.60;;
51332;SDS011;37417;48.118;11.734;2024-02-26T14:35:54;2.90;;;1.65;;
51332;SDS011;37417;48.118;11.734;2024-02-26T14:38:40;1.48;;;1.30;;
51332;SDS011;37417;48.118;11.734;2024-02-26T14:41:25;1.90;;;1.45;;
51332;SDS011;37417;48.118;11.734;2024-02-26T14:44:11;5.85;;;1.33;;
51332;SDS011;37417;48.118;11.734;2024-02-26T14:46:58;2.25;;;1.17;;
51332;SDS011;37417;48.118;11.734;2024-02-26T14:49:43;2.15;;;1.45;;
51332;SDS011;37417;48.118;11.734;2024-02-26T14:52:29;2.65;;;1.67;;
51332;SDS011;37417;48.118;11.734;2024-02-26T14:55:15;1.95;;;1.48;;
51332;SDS011;37417;48.118;11.734;2024-02-26T14:58:01;2.08;;;1.40;;
51332;SDS011;37417;48.118;11.734;2024-02-26T15:00:46;2.30;;;1.45;;
51332;SDS011;37417;48.118;11.734;2024-02-26T15:03:32;5.75;;;2.03;;
51332;SDS011;37417;48.118;11.734;2024-02-26T15:06:18;4.82;;;1.10;;
51332;SDS011;37417;48.118;11.734;2024-02-26T15:09:03;1.10;;;0.70;;
51332;SDS011;37417;48.118;11.734;2024-02-26T15:11:49;2.10;;;1.63;;
51332;SDS011;37417;48.118;11.734;2024-02-26T15:14:35;1.77;;;1.38;;
51332;SDS011;37417;48.118;11.734;2024-02-26T15:17:20;2.72;;;1.30;;
51332;SDS011;37417;48.118;11.734;2024-02-26T15:20:06;3.28;;;1.38;;
51332;SDS011;37417;48.118;11.734;2024-02-26T15:22:52;1.80;;;1.30;;
51332;SDS011;37417;48.118;11.734;2024-02-26T15:25:38;2.65;;;1.25;;
51332;SDS011;37417;48.118;11.734;2024-02-26T15:28:24;1.60;;;1.35;;
51332;SDS011;37417;48.118;11.734;2024-02-26T15:31:12;1.95;;;1.20;;
51332;SDS011;37417;48.118;11.734;2024-02-26T15:33:58;6.32;;;1.77;;
51332;SDS011;37417;48.118;11.734;2024-02-26T15:36:43;2.85;;;1.45;;
51332;SDS011;37417;48.118;11.734;2024-02-26T15:39:29;1.80;;;1.38;;
51332;SDS011;37417;48.118;11.734;2024-02-26T15:42:14;2.58;;;1.52;;
51332;SDS011;37417;48.118;11.734;2024-02-26T15:45:00;3.33;;;1.58;;
51332;SDS011;37417;48.118;11.734;2024-02-26T15:47:46;3.33;;;1.27;;
51332;SDS011;37417;48.118;11.734;2024-02-26T15:50:33;3.25;;;1.23;;
51332;SDS011;37417;48.118;11.734;2024-02-26T15:53:18;1.60;;;1.15;;
51332;SDS011;37417;48.118;11.734;2024-02-26T15:56:05;2.80;;;1.20;;
51332;SDS011;37417;48.118;11.734;2024-02-26T15:58:51;1.15;;;1.00;;
51332;SDS011;37417;48.118;11.734;2024-02-26T16:01:38;2.13;;;1.23;;
51332;SDS011;37417;48.118;11.734;2024-02-26T16:04:23;2.22;;;1.77;;
51332;SDS011;37417;48.118;11.734;2024-02-26T16:07:09;5.20;;;1.70;;
51332;SDS011;37417;48.118;11.734;2024-02-26T16:10:00;1.73;;;1.40;;
51332;SDS011;37417;48.118;11.734;2024-02-26T16:12:49;2.38;;;1.38;;
51332;SDS011;37417;48.118;11.734;2024-02-26T16:15:35;3.45;;;1.23;;
51332;SDS011;37417;48.118;11.734;2024-02-26T16:18:21;1.60;;;1.35;;
51332;SDS011;37417;48.118;11.734;2024-02-26T16:21:07;2.10;;;1.38;;
51332;SDS011;37417;48.118;11.734;2024-02-26T16:23:53;2.47;;;1.20;;
51332;SDS011;37417;48.118;11.734;2024-02-26T16:26:38;4.60;;;1.95;;
51332;SDS011;37417;48.118;11.734;2024-02-26T16:29:24;1.17;;;0.90;;